sensor_id;sensor_type;location;lat;lon;timestamp;pressure;altitude;pressure_sealevel;temperature;humidity
74921;BME280;63483;47.384;8.860;2023-04-30T00:01:38;94677.81;;;10.72;46.41
74921;BME280;63483;47.384;8.860;2023-04-30T00:04:04;94674.84;;;10.90;46.17
74921;BME280;63483;47.384;8.860;2023-04-30T00:06:29;94669.72;;;10.97;45.68
74921;BME280;63483;47.384;8.860;2023-04-30T00:08:55;94666.34;;;10.88;46.10
74921;BME280;63483;47.384;8.860;2023-04-30T00:11:20;94656.84;;;10.87;46.36
74921;BME280;63483;47.384;8.860;2023-04-30T00:13:45;94658.34;;;10.90;45.97
74921;BME280;63483;47.384;8.860;2023-04-30T00:16:11;94662.53;;;10.76;46.49
74921;BME280;63483;47.384;8.860;2023-04-30T00:18:37;94658.81;;;10.70;46.73
74921;BME280;63483;47.384;8.860;2023-04-30T00:21:02;94663.19;;;10.78;46.30
74921;BME280;63483;47.384;8.860;2023-04-30T00:23:28;94660.81;;;10.68;46.64
74921;BME280;63483;47.384;8.860;2023-04-30T00:25:53;94651.06;;;10.62;47.07
74921;BME280;63483;47.384;8.860;2023-04-30T00:28:18;94658.28;;;10.60;46.88
74921;BME280;63483;47.384;8.860;2023-04-30T00:30:44;94654.41;;;10.56;46.93
74921;BME280;63483;47.384;8.860;2023-04-30T00:33:10;94655.56;;;10.68;46.76
74921;BME280;63483;47.384;8.860;2023-04-30T00:35:35;94653.38;;;10.57;46.81
74921;BME280;63483;47.384;8.860;2023-04-30T00:38:00;94645.47;;;10.65;46.66
74921;BME280;63483;47.384;8.860;2023-04-30T00:40:26;94659.66;;;10.56;46.93
74921;BME280;63483;47.384;8.860;2023-04-30T00:42:51;94644.91;;;10.55;47.28
74921;BME280;63483;47.384;8.860;2023-04-30T00:45:22;94657.19;;;10.40;47.28
74921;BME280;63483;47.384;8.860;2023-04-30T00:47:48;94649.34;;;10.40;47.59
74921;BME280;63483;47.384;8.860;2023-04-30T00:50:14;94654.47;;;10.48;47.66
74921;BME280;63483;47.384;8.860;2023-04-30T00:52:43;94650.31;;;10.38;47.59
74921;BME280;63483;47.384;8.860;2023-04-30T00:55:10;94644.03;;;10.25;48.04
74921;BME280;63483;47.384;8.860;2023-04-30T00:57:38;94646.34;;;10.28;47.72
74921;BME280;63483;47.384;8.860;2023-04-30T01:00:04;94643.63;;;9.75;48.75
74921;BME280;63483;47.384;8.860;2023-04-30T01:02:31;94646.34;;;10.28;47.83
74921;BME280;63483;47.384;8.860;2023-04-30T01:04:56;94647.13;;;10.28;47.51
74921;BME280;63483;47.384;8.860;2023-04-30T01:07:25;94640.91;;;10.29;47.32
74921;BME280;63483;47.384;8.860;2023-04-30T01:09:53;94650.25;;;10.09;47.70
74921;BME280;63483;47.384;8.860;2023-04-30T01:15:03;94647.75;;;10.30;47.19
74921;BME280;63483;47.384;8.860;2023-04-30T01:17:55;94644.72;;;10.42;46.84
74921;BME280;63483;47.384;8.860;2023-04-30T01:20:21;94638.66;;;10.26;47.13
74921;BME280;63483;47.384;8.860;2023-04-30T01:28:14;94633.66;;;10.16;47.53
74921;BME280;63483;47.384;8.860;2023-04-30T01:30:41;94630.69;;;10.19;47.13
74921;BME280;63483;47.384;8.860;2023-04-30T01:33:11;94632.41;;;10.27;47.06
74921;BME280;63483;47.384;8.860;2023-04-30T01:35:58;94628.38;;;10.40;46.68
74921;BME280;63483;47.384;8.860;2023-04-30T01:41:24;94631.28;;;10.45;46.73
74921;BME280;63483;47.384;8.860;2023-04-30T01:46:46;94623.78;;;10.71;45.90
74921;BME280;63483;47.384;8.860;2023-04-30T01:49:31;94627.56;;;10.54;46.35
74921;BME280;63483;47.384;8.860;2023-04-30T01:52:31;94625.13;;;10.67;45.54
74921;BME280;63483;47.384;8.860;2023-04-30T01:55:00;94614.47;;;10.69;45.93
74921;BME280;63483;47.384;8.860;2023-04-30T01:57:45;94622.69;;;10.81;45.64
74921;BME280;63483;47.384;8.860;2023-04-30T02:00:12;94616.75;;;10.87;45.57
74921;BME280;63483;47.384;8.860;2023-04-30T02:02:39;94623.25;;;10.91;45.47
74921;BME280;63483;47.384;8.860;2023-04-30T02:05:04;94623.44;;;10.89;45.17
74921;BME280;63483;47.384;8.860;2023-04-30T02:07:40;94622.53;;;10.97;45.35
74921;BME280;63483;47.384;8.860;2023-04-30T02:10:06;94622.19;;;11.00;45.19
74921;BME280;63483;47.384;8.860;2023-04-30T02:12:33;94613.75;;;11.05;44.85
74921;BME280;63483;47.384;8.860;2023-04-30T02:14:58;94627.31;;;11.08;44.70
74921;BME280;63483;47.384;8.860;2023-04-30T02:17:23;94625.56;;;11.16;44.69
74921;BME280;63483;47.384;8.860;2023-04-30T02:19:49;94627.66;;;11.05;44.49
74921;BME280;63483;47.384;8.860;2023-04-30T02:22:14;94620.72;;;10.98;44.91
74921;BME280;63483;47.384;8.860;2023-04-30T02:24:40;94619.28;;;10.95;45.21
74921;BME280;63483;47.384;8.860;2023-04-30T02:27:05;94622.19;;;11.00;45.19
74921;BME280;63483;47.384;8.860;2023-04-30T02:29:30;94622.53;;;10.97;45.55
74921;BME280;63483;47.384;8.860;2023-04-30T02:31:57;94618.53;;;11.01;45.32
74921;BME280;63483;47.384;8.860;2023-04-30T02:34:23;94617.81;;;11.07;45.16
74921;BME280;63483;47.384;8.860;2023-04-30T02:36:48;94617.47;;;11.11;44.92
74921;BME280;63483;47.384;8.860;2023-04-30T02:39:13;94618.00;;;11.06;45.15
74921;BME280;63483;47.384;8.860;2023-04-30T02:41:39;94610.59;;;11.10;44.77
74921;BME280;63483;47.384;8.860;2023-04-30T02:44:04;94613.22;;;11.10;44.82
74921;BME280;63483;47.384;8.860;2023-04-30T02:46:29;94617.47;;;11.11;44.88
74921;BME280;63483;47.384;8.860;2023-04-30T02:48:55;94612.50;;;11.01;45.06
74921;BME280;63483;47.384;8.860;2023-04-30T02:51:20;94616.66;;;10.95;45.30
74921;BME280;63483;47.384;8.860;2023-04-30T02:53:45;94613.84;;;10.67;45.86
74921;BME280;63483;47.384;8.860;2023-04-30T02:56:11;94614.41;;;10.62;45.87
74921;BME280;63483;47.384;8.860;2023-04-30T02:58:36;94610.69;;;10.71;45.99
74921;BME280;63483;47.384;8.860;2023-04-30T03:01:01;94612.13;;;10.29;46.96
74921;BME280;63483;47.384;8.860;2023-04-30T03:03:27;94610.06;;;10.40;46.40
74921;BME280;63483;47.384;8.860;2023-04-30T03:05:53;94616.19;;;10.47;46.36
74921;BME280;63483;47.384;8.860;2023-04-30T03:08:20;94615.09;;;10.26;46.89
74921;BME280;63483;47.384;8.860;2023-04-30T03:10:46;94613.53;;;10.17;47.13
74921;BME280;63483;47.384;8.860;2023-04-30T03:13:11;94608.94;;;10.19;47.21
74921;BME280;63483;47.384;8.860;2023-04-30T03:15:36;94613.81;;;10.22;47.10
74921;BME280;63483;47.384;8.860;2023-04-30T03:18:02;94605.84;;;9.54;49.17
74921;BME280;63483;47.384;8.860;2023-04-30T03:20:28;94614.19;;;9.73;48.70
74921;BME280;63483;47.384;8.860;2023-04-30T03:22:53;94611.41;;;9.74;48.78
74921;BME280;63483;47.384;8.860;2023-04-30T03:25:19;94606.06;;;9.67;48.87
74921;BME280;63483;47.384;8.860;2023-04-30T03:27:44;94605.28;;;9.67;48.76
74921;BME280;63483;47.384;8.860;2023-04-30T03:30:09;94605.94;;;9.84;48.73
74921;BME280;63483;47.384;8.860;2023-04-30T03:32:35;94600.88;;;9.59;49.17
74921;BME280;63483;47.384;8.860;2023-04-30T03:35:00;94603.28;;;9.46;49.45
74921;BME280;63483;47.384;8.860;2023-04-30T03:37:26;94603.09;;;9.47;49.70
74921;BME280;63483;47.384;8.860;2023-04-30T03:39:51;94604.91;;;9.47;49.51
74921;BME280;63483;47.384;8.860;2023-04-30T03:42:16;94601.75;;;9.51;49.52
74921;BME280;63483;47.384;8.860;2023-04-30T03:44:42;94599.06;;;9.45;49.78
74921;BME280;63483;47.384;8.860;2023-04-30T03:47:07;94602.28;;;9.47;49.57
74921;BME280;63483;47.384;8.860;2023-04-30T03:49:32;94610.13;;;9.47;49.75
74921;BME280;63483;47.384;8.860;2023-04-30T03:51:58;94607.69;;;9.45;49.75
74921;BME280;63483;47.384;8.860;2023-04-30T03:54:23;94601.75;;;9.51;49.53
74921;BME280;63483;47.384;8.860;2023-04-30T03:56:49;94604.31;;;9.37;49.75
74921;BME280;63483;47.384;8.860;2023-04-30T03:59:14;94605.97;;;9.38;49.87
74921;BME280;63483;47.384;8.860;2023-04-30T04:01:40;94607.81;;;9.29;50.10
74921;BME280;63483;47.384;8.860;2023-04-30T04:04:05;94607.84;;;9.21;50.36
74921;BME280;63483;47.384;8.860;2023-04-30T04:06:31;94600.22;;;9.11;50.50
74921;BME280;63483;47.384;8.860;2023-04-30T04:08:56;94602.56;;;9.29;50.17
74921;BME280;63483;47.384;8.860;2023-04-30T04:11:22;94605.00;;;9.30;50.08
74921;BME280;63483;47.384;8.860;2023-04-30T04:13:47;94603.03;;;9.32;50.02
74921;BME280;63483;47.384;8.860;2023-04-30T04:16:13;94613.06;;;9.21;50.42
74921;BME280;63483;47.384;8.860;2023-04-30T04:18:38;94604.94;;;9.39;50.06
74921;BME280;63483;47.384;8.860;2023-04-30T04:21:03;94613.13;;;9.36;50.00
74921;BME280;63483;47.384;8.860;2023-04-30T04:23:29;94611.28;;;9.44;50.25
74921;BME280;63483;47.384;8.860;2023-04-30T04:25:54;94615.50;;;9.54;49.62
74921;BME280;63483;47.384;8.860;2023-04-30T04:28:21;94613.47;;;9.32;50.32
74921;BME280;63483;47.384;8.860;2023-04-30T04:30:46;94612.19;;;9.28;50.47
74921;BME280;63483;47.384;8.860;2023-04-30T04:33:13;94606.41;;;9.18;50.56
74921;BME280;63483;47.384;8.860;2023-04-30T04:35:38;94617.25;;;8.98;51.06
74921;BME280;63483;47.384;8.860;2023-04-30T04:38:04;94612.06;;;9.30;50.18
74921;BME280;63483;47.384;8.860;2023-04-30T04:40:30;94620.03;;;8.97;50.97
74921;BME280;63483;47.384;8.860;2023-04-30T04:42:55;94609.50;;;9.13;50.93
74921;BME280;63483;47.384;8.860;2023-04-30T04:45:21;94620.22;;;9.27;50.33
74921;BME280;63483;47.384;8.860;2023-04-30T04:47:46;94625.56;;;9.33;49.98
74921;BME280;63483;47.384;8.860;2023-04-30T04:50:12;94628.66;;;9.06;50.88
74921;BME280;63483;47.384;8.860;2023-04-30T04:52:38;94628.22;;;9.25;50.07
74921;BME280;63483;47.384;8.860;2023-04-30T04:55:04;94629.63;;;9.05;50.69
74921;BME280;63483;47.384;8.860;2023-04-30T04:57:30;94618.94;;;8.75;51.46
74921;BME280;63483;47.384;8.860;2023-04-30T04:59:55;94619.22;;;8.96;51.23
74921;BME280;63483;47.384;8.860;2023-04-30T05:02:21;94622.22;;;8.85;51.13
74921;BME280;63483;47.384;8.860;2023-04-30T05:04:48;94623.50;;;8.89;51.17
74921;BME280;63483;47.384;8.860;2023-04-30T05:07:15;94623.44;;;9.06;50.72
74921;BME280;63483;47.384;8.860;2023-04-30T05:09:42;94617.81;;;8.86;51.15
74921;BME280;63483;47.384;8.860;2023-04-30T05:12:07;94623.13;;;9.01;50.95
74921;BME280;63483;47.384;8.860;2023-04-30T05:14:32;94618.88;;;9.08;50.61
74921;BME280;63483;47.384;8.860;2023-04-30T05:16:58;94619.56;;;8.93;50.76
74921;BME280;63483;47.384;8.860;2023-04-30T05:19:23;94621.75;;;8.82;51.58
74921;BME280;63483;47.384;8.860;2023-04-30T05:21:48;94615.38;;;8.84;51.34
74921;BME280;63483;47.384;8.860;2023-04-30T05:24:14;94628.78;;;8.64;51.62
74921;BME280;63483;47.384;8.860;2023-04-30T05:26:39;94625.59;;;8.94;51.07
74921;BME280;63483;47.384;8.860;2023-04-30T05:29:04;94630.81;;;9.02;50.82
74921;BME280;63483;47.384;8.860;2023-04-30T05:31:30;94615.31;;;8.44;52.27
74921;BME280;63483;47.384;8.860;2023-04-30T05:33:56;94624.91;;;8.52;52.09
74921;BME280;63483;47.384;8.860;2023-04-30T05:36:22;94610.56;;;8.48;52.04
74921;BME280;63483;47.384;8.860;2023-04-30T05:38:47;94616.03;;;8.78;51.68
74921;BME280;63483;47.384;8.860;2023-04-30T05:41:12;94614.13;;;8.63;51.55
74921;BME280;63483;47.384;8.860;2023-04-30T05:43:38;94618.34;;;8.64;51.71
74921;BME280;63483;47.384;8.860;2023-04-30T05:46:03;94619.69;;;8.52;51.96
74921;BME280;63483;47.384;8.860;2023-04-30T05:48:29;94617.41;;;8.41;52.55
74921;BME280;63483;47.384;8.860;2023-04-30T05:50:55;94623.19;;;8.28;52.39
74921;BME280;63483;47.384;8.860;2023-04-30T05:53:20;94615.81;;;8.32;52.51
74921;BME280;63483;47.384;8.860;2023-04-30T05:55:45;94609.59;;;8.41;52.48
74921;BME280;63483;47.384;8.860;2023-04-30T05:58:11;94615.88;;;7.99;53.32
74921;BME280;63483;47.384;8.860;2023-04-30T06:00:36;94606.50;;;8.45;52.29
74921;BME280;63483;47.384;8.860;2023-04-30T06:03:03;94618.28;;;8.08;51.36
74921;BME280;63483;47.384;8.860;2023-04-30T06:05:28;94616.84;;;8.06;51.51
74921;BME280;63483;47.384;8.860;2023-04-30T06:07:54;94626.28;;;8.15;49.08
74921;BME280;63483;47.384;8.860;2023-04-30T06:10:19;94627.28;;;7.98;47.41
74921;BME280;63483;47.384;8.860;2023-04-30T06:12:45;94619.78;;;7.95;51.95
74921;BME280;63483;47.384;8.860;2023-04-30T06:15:10;94622.22;;;7.80;52.39
74921;BME280;63483;47.384;8.860;2023-04-30T06:17:35;94619.78;;;7.62;53.03
74921;BME280;63483;47.384;8.860;2023-04-30T06:20:01;94614.88;;;7.58;50.50
74921;BME280;63483;47.384;8.860;2023-04-30T06:22:31;94614.91;;;7.75;51.83
74921;BME280;63483;47.384;8.860;2023-04-30T06:24:56;94614.56;;;7.78;52.95
74921;BME280;63483;47.384;8.860;2023-04-30T06:27:22;94606.09;;;7.92;53.64
74921;BME280;63483;47.384;8.860;2023-04-30T06:29:47;94614.09;;;7.74;52.25
74921;BME280;63483;47.384;8.860;2023-04-30T06:32:13;94614.91;;;7.91;53.05
74921;BME280;63483;47.384;8.860;2023-04-30T06:34:38;94609.00;;;8.14;50.86
74921;BME280;63483;47.384;8.860;2023-04-30T06:37:03;94619.47;;;7.89;52.44
74921;BME280;63483;47.384;8.860;2023-04-30T06:39:29;94616.19;;;8.04;51.62
74921;BME280;63483;47.384;8.860;2023-04-30T06:41:54;94610.31;;;8.02;50.72
74921;BME280;63483;47.384;8.860;2023-04-30T06:44:20;94618.97;;;7.94;52.53
74921;BME280;63483;47.384;8.860;2023-04-30T06:46:45;94623.03;;;7.97;52.48
74921;BME280;63483;47.384;8.860;2023-04-30T06:49:10;94619.94;;;8.01;52.92
74921;BME280;63483;47.384;8.860;2023-04-30T06:51:36;94620.44;;;8.05;53.80
74921;BME280;63483;47.384;8.860;2023-04-30T06:54:01;94623.38;;;7.77;52.37
74921;BME280;63483;47.384;8.860;2023-04-30T06:56:26;94620.09;;;7.67;52.42
74921;BME280;63483;47.384;8.860;2023-04-30T06:58:52;94621.69;;;7.59;52.84
74921;BME280;63483;47.384;8.860;2023-04-30T07:01:17;94623.38;;;7.77;49.63
74921;BME280;63483;47.384;8.860;2023-04-30T07:03:42;94621.75;;;7.84;50.77
74921;BME280;63483;47.384;8.860;2023-04-30T07:06:08;94615.84;;;8.07;53.01
74921;BME280;63483;47.384;8.860;2023-04-30T07:08:33;94615.06;;;7.90;52.22
74921;BME280;63483;47.384;8.860;2023-04-30T07:10:59;94610.00;;;8.05;50.89
74921;BME280;63483;47.384;8.860;2023-04-30T07:13:24;94617.63;;;8.23;52.79
74921;BME280;63483;47.384;8.860;2023-04-30T07:15:50;94624.03;;;7.96;53.74
74921;BME280;63483;47.384;8.860;2023-04-30T07:18:15;94624.31;;;8.17;53.55
74921;BME280;63483;47.384;8.860;2023-04-30T07:20:41;94622.38;;;8.19;53.42
74921;BME280;63483;47.384;8.860;2023-04-30T07:23:06;94620.38;;;8.46;52.50
74921;BME280;63483;47.384;8.860;2023-04-30T07:25:31;94622.00;;;8.31;53.12
74921;BME280;63483;47.384;8.860;2023-04-30T07:27:57;94623.19;;;8.20;53.31
74921;BME280;63483;47.384;8.860;2023-04-30T07:30:22;94611.50;;;8.55;52.61
74921;BME280;63483;47.384;8.860;2023-04-30T07:32:48;94605.25;;;8.25;53.34
74921;BME280;63483;47.384;8.860;2023-04-30T07:35:14;94600.06;;;8.64;52.16
74921;BME280;63483;47.384;8.860;2023-04-30T07:37:39;94608.78;;;8.40;52.91
74921;BME280;63483;47.384;8.860;2023-04-30T07:40:06;94602.09;;;8.46;52.61
74921;BME280;63483;47.384;8.860;2023-04-30T07:42:37;94611.88;;;8.44;53.14
74921;BME280;63483;47.384;8.860;2023-04-30T07:45:02;94606.97;;;8.57;52.73
74921;BME280;63483;47.384;8.860;2023-04-30T07:47:28;94599.44;;;8.54;52.58
74921;BME280;63483;47.384;8.860;2023-04-30T07:49:54;94601.34;;;8.69;52.63
74921;BME280;63483;47.384;8.860;2023-04-30T07:52:20;94605.84;;;8.52;53.02
74921;BME280;63483;47.384;8.860;2023-04-30T07:54:45;94611.69;;;9.02;51.45
74921;BME280;63483;47.384;8.860;2023-04-30T07:57:10;94604.31;;;8.66;52.49
74921;BME280;63483;47.384;8.860;2023-04-30T07:59:37;94611.50;;;8.55;53.37
74921;BME280;63483;47.384;8.860;2023-04-30T08:02:02;94609.84;;;8.71;52.55
74921;BME280;63483;47.384;8.860;2023-04-30T08:04:27;94613.50;;;8.53;53.03
74921;BME280;63483;47.384;8.860;2023-04-30T08:06:53;94610.50;;;8.81;52.49
74921;BME280;63483;47.384;8.860;2023-04-30T08:09:18;94605.63;;;8.61;52.74
74921;BME280;63483;47.384;8.860;2023-04-30T08:11:43;94609.13;;;8.93;52.01
74921;BME280;63483;47.384;8.860;2023-04-30T08:14:09;94608.56;;;8.67;52.59
74921;BME280;63483;47.384;8.860;2023-04-30T08:16:34;94615.31;;;9.01;51.72
74921;BME280;63483;47.384;8.860;2023-04-30T08:19:00;94619.13;;;9.21;51.90
74921;BME280;63483;47.384;8.860;2023-04-30T08:21:25;94608.00;;;9.19;50.83
74921;BME280;63483;47.384;8.860;2023-04-30T08:23:53;94600.22;;;9.11;51.34
74921;BME280;63483;47.384;8.860;2023-04-30T08:26:18;94597.63;;;9.11;51.58
74921;BME280;63483;47.384;8.860;2023-04-30T08:28:45;94607.56;;;9.15;51.77
74921;BME280;63483;47.384;8.860;2023-04-30T08:31:11;94606.13;;;9.05;51.09
74921;BME280;63483;47.384;8.860;2023-04-30T08:33:37;94607.13;;;8.48;52.91
74921;BME280;63483;47.384;8.860;2023-04-30T08:36:02;94612.09;;;8.90;52.38
74921;BME280;63483;47.384;8.860;2023-04-30T08:38:28;94607.81;;;8.97;51.77
74921;BME280;63483;47.384;8.860;2023-04-30T08:43:30;94600.06;;;8.81;52.27
74921;BME280;63483;47.384;8.860;2023-04-30T08:45:59;94603.56;;;8.96;52.07
74921;BME280;63483;47.384;8.860;2023-04-30T08:48:26;94606.06;;;9.21;51.14
74921;BME280;63483;47.384;8.860;2023-04-30T08:50:52;94608.16;;;8.94;51.99
74921;BME280;63483;47.384;8.860;2023-04-30T08:53:18;94615.66;;;8.97;51.60
74921;BME280;63483;47.384;8.860;2023-04-30T08:55:45;94614.66;;;9.53;50.79
74921;BME280;63483;47.384;8.860;2023-04-30T08:58:11;94613.47;;;9.32;51.00
74921;BME280;63483;47.384;8.860;2023-04-30T09:00:37;94614.91;;;9.43;50.65
74921;BME280;63483;47.384;8.860;2023-04-30T09:03:04;94629.06;;;9.49;50.88
74921;BME280;63483;47.384;8.860;2023-04-30T09:05:29;94623.59;;;9.36;51.41
74921;BME280;63483;47.384;8.860;2023-04-30T09:07:55;94626.50;;;9.64;50.60
74921;BME280;63483;47.384;8.860;2023-04-30T09:10:21;94614.84;;;9.75;50.12
74921;BME280;63483;47.384;8.860;2023-04-30T09:13:06;94617.13;;;9.78;50.06
74921;BME280;63483;47.384;8.860;2023-04-30T09:15:34;94617.47;;;9.75;49.86
74921;BME280;63483;47.384;8.860;2023-04-30T09:18:14;94612.22;;;9.75;50.85
74921;BME280;63483;47.384;8.860;2023-04-30T09:20:59;94616.25;;;10.09;49.86
74921;BME280;63483;47.384;8.860;2023-04-30T09:23:28;94611.28;;;10.14;49.54
74921;BME280;63483;47.384;8.860;2023-04-30T09:25:54;94613.72;;;10.15;49.46
74921;BME280;63483;47.384;8.860;2023-04-30T09:28:21;94601.00;;;10.27;48.83
74921;BME280;63483;47.384;8.860;2023-04-30T09:30:51;94613.16;;;10.05;49.16
74921;BME280;63483;47.384;8.860;2023-04-30T09:33:17;94604.81;;;10.40;48.40
74921;BME280;63483;47.384;8.860;2023-04-30T09:35:43;94608.88;;;10.42;48.87
74921;BME280;63483;47.384;8.860;2023-04-30T09:38:44;94605.25;;;10.43;48.28
74921;BME280;63483;47.384;8.860;2023-04-30T09:41:27;94595.78;;;10.72;48.15
74921;BME280;63483;47.384;8.860;2023-04-30T09:43:54;94601.84;;;10.72;48.01
74921;BME280;63483;47.384;8.860;2023-04-30T09:46:21;94600.38;;;10.70;48.08
74921;BME280;63483;47.384;8.860;2023-04-30T09:48:55;94591.97;;;10.74;47.77
74921;BME280;63483;47.384;8.860;2023-04-30T09:51:21;94598.84;;;10.76;47.90
74921;BME280;63483;47.384;8.860;2023-04-30T09:53:46;94597.94;;;10.68;47.58
74921;BME280;63483;47.384;8.860;2023-04-30T09:56:13;94599.84;;;10.89;47.15
74921;BME280;63483;47.384;8.860;2023-04-30T09:58:49;94594.44;;;10.91;47.04
74921;BME280;63483;47.384;8.860;2023-04-30T10:01:14;94599.19;;;10.87;46.98
74921;BME280;63483;47.384;8.860;2023-04-30T10:03:41;94587.03;;;10.65;47.44
74921;BME280;63483;47.384;8.860;2023-04-30T10:06:07;94584.66;;;10.85;47.36
74921;BME280;63483;47.384;8.860;2023-04-30T10:08:39;94590.63;;;10.79;47.50
74921;BME280;63483;47.384;8.860;2023-04-30T10:11:08;94577.53;;;10.79;47.54
74921;BME280;63483;47.384;8.860;2023-04-30T10:13:44;94574.47;;;10.60;47.79
74921;BME280;63483;47.384;8.860;2023-04-30T10:16:36;94574.47;;;10.90;46.92
74921;BME280;63483;47.384;8.860;2023-04-30T10:19:25;94572.75;;;10.97;46.25
74921;BME280;63483;47.384;8.860;2023-04-30T10:21:53;94579.03;;;11.03;47.30
74921;BME280;63483;47.384;8.860;2023-04-30T10:24:19;94580.41;;;11.14;46.53
74921;BME280;63483;47.384;8.860;2023-04-30T10:26:46;94564.91;;;11.19;46.73
74921;BME280;63483;47.384;8.860;2023-04-30T10:29:12;94581.63;;;11.18;46.43
74921;BME280;63483;47.384;8.860;2023-04-30T10:31:40;94563.97;;;10.60;46.44
74921;BME280;63483;47.384;8.860;2023-04-30T10:36:42;94559.00;;;10.95;46.62
74921;BME280;63483;47.384;8.860;2023-04-30T10:39:14;94566.41;;;11.28;46.55
74921;BME280;63483;47.384;8.860;2023-04-30T10:41:45;94549.75;;;11.79;45.18
74921;BME280;63483;47.384;8.860;2023-04-30T10:44:14;94537.31;;;11.66;45.73
74921;BME280;63483;47.384;8.860;2023-04-30T10:46:40;94546.56;;;11.62;45.40
74921;BME280;63483;47.384;8.860;2023-04-30T10:49:06;94541.03;;;11.29;45.38
74921;BME280;63483;47.384;8.860;2023-04-30T10:51:47;94550.59;;;11.58;45.22
74921;BME280;63483;47.384;8.860;2023-04-30T10:54:15;94549.09;;;11.77;45.95
74921;BME280;63483;47.384;8.860;2023-04-30T10:56:43;94555.56;;;11.31;46.49
74921;BME280;63483;47.384;8.860;2023-04-30T10:59:10;94555.38;;;11.54;44.98
74921;BME280;63483;47.384;8.860;2023-04-30T11:01:55;94551.31;;;11.95;45.29
74921;BME280;63483;47.384;8.860;2023-04-30T11:04:21;94541.44;;;11.97;44.40
74921;BME280;63483;47.384;8.860;2023-04-30T11:09:40;94543.00;;;12.20;44.67
74921;BME280;63483;47.384;8.860;2023-04-30T11:12:14;94536.19;;;11.75;43.80
74921;BME280;63483;47.384;8.860;2023-04-30T11:14:44;94542.44;;;11.74;44.10
74921;BME280;63483;47.384;8.860;2023-04-30T11:17:11;94544.63;;;11.71;44.35
74921;BME280;63483;47.384;8.860;2023-04-30T11:19:49;94538.56;;;11.70;44.69
74921;BME280;63483;47.384;8.860;2023-04-30T11:22:16;94531.47;;;11.64;44.39
74921;BME280;63483;47.384;8.860;2023-04-30T11:25:07;94535.78;;;11.78;44.13
74921;BME280;63483;47.384;8.860;2023-04-30T11:27:41;94522.06;;;11.76;44.46
74921;BME280;63483;47.384;8.860;2023-04-30T11:30:14;94523.19;;;11.89;43.93
74921;BME280;63483;47.384;8.860;2023-04-30T11:32:42;94527.91;;;12.00;43.85
74921;BME280;63483;47.384;8.860;2023-04-30T11:35:10;94529.25;;;12.18;42.86
74921;BME280;63483;47.384;8.860;2023-04-30T11:37:40;94524.59;;;12.13;42.55
74921;BME280;63483;47.384;8.860;2023-04-30T11:40:09;94535.66;;;12.08;42.92
74921;BME280;63483;47.384;8.860;2023-04-30T11:42:36;94542.25;;;11.76;43.46
74921;BME280;63483;47.384;8.860;2023-04-30T11:45:05;94544.59;;;11.64;43.05
74921;BME280;63483;47.384;8.860;2023-04-30T11:50:08;94544.97;;;11.61;43.34
74921;BME280;63483;47.384;8.860;2023-04-30T11:52:34;94538.28;;;11.58;43.06
74921;BME280;63483;47.384;8.860;2023-04-30T11:55:04;94542.28;;;11.83;42.08
74921;BME280;63483;47.384;8.860;2023-04-30T11:57:34;94534.56;;;11.96;42.99
74921;BME280;63483;47.384;8.860;2023-04-30T12:00:07;94526.91;;;11.73;43.60
74921;BME280;63483;47.384;8.860;2023-04-30T12:02:34;94528.78;;;12.07;43.82
74921;BME280;63483;47.384;8.860;2023-04-30T12:04:59;94531.56;;;11.77;43.08
74921;BME280;63483;47.384;8.860;2023-04-30T12:07:24;94525.72;;;11.54;43.34
74921;BME280;63483;47.384;8.860;2023-04-30T12:09:53;94523.19;;;12.17;42.07
74921;BME280;63483;47.384;8.860;2023-04-30T12:12:29;94529.72;;;12.28;41.71
74921;BME280;63483;47.384;8.860;2023-04-30T12:14:55;94525.88;;;11.95;42.86
74921;BME280;63483;47.384;8.860;2023-04-30T12:17:32;94522.16;;;12.11;42.55
74921;BME280;63483;47.384;8.860;2023-04-30T12:19:57;94538.22;;;12.30;41.53
74921;BME280;63483;47.384;8.860;2023-04-30T12:22:23;94525.25;;;12.22;42.16
74921;BME280;63483;47.384;8.860;2023-04-30T12:24:48;94524.00;;;12.18;42.06
74921;BME280;63483;47.384;8.860;2023-04-30T12:27:14;94524.59;;;12.20;42.48
74921;BME280;63483;47.384;8.860;2023-04-30T12:29:42;94530.13;;;12.25;41.38
74921;BME280;63483;47.384;8.860;2023-04-30T12:32:08;94528.06;;;12.62;42.28
74921;BME280;63483;47.384;8.860;2023-04-30T12:34:36;94522.19;;;12.60;41.11
74921;BME280;63483;47.384;8.860;2023-04-30T12:37:02;94516.34;;;12.23;42.05
74921;BME280;63483;47.384;8.860;2023-04-30T12:39:32;94519.34;;;12.55;40.95
74921;BME280;63483;47.384;8.860;2023-04-30T12:41:59;94516.00;;;12.33;42.26
74921;BME280;63483;47.384;8.860;2023-04-30T12:44:26;94524.13;;;12.09;41.81
74921;BME280;63483;47.384;8.860;2023-04-30T12:46:53;94502.22;;;12.24;42.58
74921;BME280;63483;47.384;8.860;2023-04-30T12:49:26;94513.56;;;12.31;41.31
74921;BME280;63483;47.384;8.860;2023-04-30T12:51:58;94504.38;;;12.48;41.55
74921;BME280;63483;47.384;8.860;2023-04-30T12:54:28;94508.41;;;12.51;41.65
74921;BME280;63483;47.384;8.860;2023-04-30T12:57:12;94505.91;;;12.36;41.45
74921;BME280;63483;47.384;8.860;2023-04-30T12:59:54;94503.34;;;12.49;42.61
74921;BME280;63483;47.384;8.860;2023-04-30T13:02:22;94510.09;;;12.59;41.19
74921;BME280;63483;47.384;8.860;2023-04-30T13:04:48;94504.38;;;12.48;41.27
74921;BME280;63483;47.384;8.860;2023-04-30T13:07:15;94511.94;;;12.30;41.57
74921;BME280;63483;47.384;8.860;2023-04-30T13:09:40;94513.19;;;12.34;41.46
74921;BME280;63483;47.384;8.860;2023-04-30T13:12:06;94525.66;;;12.25;41.60
74921;BME280;63483;47.384;8.860;2023-04-30T13:14:31;94522.66;;;12.00;41.86
74921;BME280;63483;47.384;8.860;2023-04-30T13:16:57;94509.50;;;12.22;42.05
74921;BME280;63483;47.384;8.860;2023-04-30T13:19:23;94506.59;;;12.10;41.68
74921;BME280;63483;47.384;8.860;2023-04-30T13:21:49;94507.44;;;12.17;42.35
74921;BME280;63483;47.384;8.860;2023-04-30T13:24:14;94502.56;;;12.14;41.97
74921;BME280;63483;47.384;8.860;2023-04-30T13:26:40;94502.34;;;12.51;41.17
74921;BME280;63483;47.384;8.860;2023-04-30T13:29:05;94497.34;;;12.62;41.91
74921;BME280;63483;47.384;8.860;2023-04-30T13:31:31;94507.97;;;12.89;40.90